• Join FlightAware (Why Join?)
  • Login
  • US Flag 
04:42AM EDT


 

Airport Tracker/Info


-or-


 

Live Flight TrackerFlight Track Log ✈ N75ZM ✈ 18-Aug-2013 ✈ KECP - KSFB

Flight Track Log - Related Links

Times and Time Zones

All times are in EDT time to prevent confusion due to time zone crossing. See the N75ZM flight status page for this flight to view local times or setup timezone preferences in your user account.

Time Position Orientation Groundspeed Altitude Reporting Facility
EDT Latitude Longitude Course Direction KTS MPH feet Rate Location/Type
12:35PM 30.2608 -85.4965 111° Southeast  Level Estimated
12:36PM 30.2468 -85.4538 106° East  Level Estimated
12:37PM 30.2328 -85.4111 112° Southeast  Level Estimated
12:38PM 30.2181 -85.3688 112° Southeast  Level FlightAware Approximate
12:39PM 30.2034 -85.3265 112° Southeast  Level FlightAware Approximate
12:40PM 30.1887 -85.2841 112° Southeast  Level FlightAware Approximate
12:41PM 30.1736 -85.2380 111° Southeast  Level Estimated
12:42PM 30.1584 -85.1919 111° Southeast  Level Estimated
12:43PM 30.1432 -85.1459 111° Southeast  Level Estimated
12:44PM 30.1280 -85.0998 111° Southeast  Level Estimated
12:45PM 30.1127 -85.0538 111° Southeast  Level Estimated
12:46PM 30.0975 -85.0077 111° Southeast  Level Estimated
12:47PM 30.0822 -84.9617 111° Southeast  Level Estimated
12:48PM 30.0669 -84.9157 111° Southeast  Level Estimated
12:49PM 30.0516 -84.8697 111° Southeast  Level Estimated
12:50PM 30.0363 -84.8238 111° Southeast  Level Estimated
12:51PM 30.0210 -84.7778 111° Southeast  Level Estimated
12:52PM 30.0056 -84.7318 111° Southeast  Level Estimated
12:53PM 29.9903 -84.6859 111° Southeast  Level Estimated
12:54PM 29.9749 -84.6400 111° Southeast  Level Estimated
12:55PM 29.9595 -84.5941 111° Southeast  Level Estimated
12:56PM 29.9441 -84.5482 111° Southeast  Level Estimated
12:57PM 29.9287 -84.5023 111° Southeast  Level Estimated
12:58PM 29.9132 -84.4565 111° Southeast  Level Estimated
12:59PM 29.8978 -84.4106 111° Southeast  Level Estimated
01:00PM 29.8823 -84.3648 111° Southeast  Level Estimated
01:01PM 29.8668 -84.3190 111° Southeast  Level Estimated
01:02PM 29.8513 -84.2732 111° Southeast  Level Estimated
01:03PM 29.8358 -84.2274 111° Southeast  Level Estimated
01:04PM 29.8202 -84.1816 111° Southeast  Level Estimated
01:05PM 29.8047 -84.1358 111° Southeast  Level Estimated
01:06PM 29.7891 -84.0901 111° Southeast  Level Estimated
01:07PM 29.7735 -84.0444 111° Southeast  Level Estimated
01:08PM 29.7579 -83.9986 111° Southeast  Level Estimated
01:09PM 29.7423 -83.9529 111° Southeast  Level Estimated
01:10PM 29.7267 -83.9072 111° Southeast  Level Estimated
01:11PM 29.7110 -83.8616 112° Southeast  Level Estimated
01:11PM 30.2500 -83.9144 112° Southeast 156 180 9,200  Level Jacksonville Center
01:12PM 29.6954 -83.8159 112° Southeast  Level Estimated
01:12PM 30.2272 -83.8733 123° Southeast 153 176 9,200  Level Jacksonville Center
01:13PM 29.6797 -83.7703 112° Southeast  Level Estimated
01:13PM 30.2067 -83.8325 120° Southeast 156 180 9,200  Level Jacksonville Center
01:14PM 29.6640 -83.7246 112° Southeast  Level Estimated
01:14PM 30.1839 -83.7914 123° Southeast 162 186 9,100  Level Jacksonville Center
01:15PM 29.6483 -83.6790 112° Southeast  Level Estimated
01:15PM 30.1614 -83.7478 121° Southeast 162 186 9,200  Level Jacksonville Center
01:16PM 29.6326 -83.6334 112° Southeast  Level Estimated
01:16PM 30.1386 -83.7092 124° Southeast 157 181 9,200  Level Jacksonville Center
01:17PM 30.1158 -83.6633 120° Southeast 157 181 9,200 -60 Level Jacksonville Center
01:18PM 30.0911 -83.6225 125° Southeast 157 181 9,100  Descending Jacksonville Center
01:19PM 30.0622 -83.5886 135° Southeast 157 181 9,200  Climbing Jacksonville Center
01:20PM 30.0311 -83.5522 135° Southeast 152 175 9,200  Level Jacksonville Center
01:21PM 30.0019 -83.5161 133° Southeast 152 175 9,200  Level Jacksonville Center
01:22PM 29.9708 -83.4825 137° Southeast 147 169 9,200  Level Jacksonville Center
01:23PM 29.9397 -83.4464 135° Southeast 147 169 9,200  Level Jacksonville Center
01:24PM 29.9106 -83.4125 135° Southeast 147 169 9,200  Level Jacksonville Center
01:25PM 29.8794 -83.3742 133° Southeast 147 169 9,200  Level Jacksonville Center
01:26PM 29.8503 -83.3403 135° Southeast 147 169 9,200  Level Jacksonville Center
01:27PM 29.8192 -83.3044 135° Southeast 147 169 9,200  Level Jacksonville Center
01:28PM 29.7878 -83.2683 135° Southeast 147 169 9,200  Level Jacksonville Center
01:29PM 29.7586 -83.2347 135° Southeast 147 169 9,200  Level Jacksonville Center
01:30PM 29.7297 -83.1964 131° Southeast 147 169 9,200  Level Jacksonville Center
01:31PM 29.6983 -83.1628 137° Southeast 147 169 9,200  Level Jacksonville Center
01:32PM 29.6672 -83.1267 135° Southeast 147 169 9,200  Level Jacksonville Center
01:33PM 29.6358 -83.0886 133° Southeast 154 177 9,200  Level Jacksonville Center
01:34PM 29.6025 -83.0525 137° Southeast 154 177 9,200  Level Jacksonville Center
01:35PM 29.5839 -83.0144 119° Southeast 154 177 9,200  Level Jacksonville Center
01:36PM 29.5567 -82.9714 126° Southeast 154 177 9,200  Level Jacksonville Center
01:37PM 29.5317 -82.9331 127° Southeast 154 177 9,200  Level Jacksonville Center
01:38PM 29.5025 -82.8925 130° Southeast 160 184 9,200  Level Jacksonville Center
01:39PM 29.4731 -82.8497 128° Southeast 160 184 9,200 -120 Level Jacksonville Center
01:39PM 29.4564 -82.8306 135° Southeast 158 182 9,100 -120 Descending Jacksonville Center
01:40PM 29.4481 -82.8092 114° Southeast 160 184 9,100  Level Jacksonville Center
01:40PM 29.4333 -82.7875 128° Southeast 157 181 9,100 60 Level Jacksonville Center
01:41PM 29.4125 -82.7494 122° Southeast 156 180 9,200 60 Climbing Jacksonville Center
01:42PM 29.4022 -82.7258 117° Southeast 150 173 9,200  Level Jacksonville Center
01:42PM 29.3853 -82.6994 126° Southeast 153 176 9,200 -60 Level Jacksonville Center
01:43PM 29.3603 -82.6567 124° Southeast 154 177 9,100  Descending Jacksonville Center
01:45PM 29.3392 -82.6186 122° Southeast 152 175 9,200  Climbing Jacksonville Center
01:46PM 29.3161 -82.5781 123° Southeast 152 175 9,200  Level Jacksonville Center
01:46PM 29.2931 -82.5425 127° Southeast 152 175 9,200  Level Jacksonville Center
01:47PM 29.2722 -82.4975 118° Southeast 149 171 9,200  Level Jacksonville Center
01:48PM 29.2492 -82.4569 123° Southeast 147 169 9,200 -60 Level Jacksonville Center
01:49PM 29.2239 -82.4167 126° Southeast 150 173 9,100  Descending Jacksonville Center
01:51PM 29.2028 -82.3789 123° Southeast 149 171 9,200 -300 Climbing Jacksonville Center
01:52PM 29.1797 -82.3383 123° Southeast 148 170 8,600 -540 Descending Jacksonville Center
01:52PM 29.1608 -82.3028 121° Southeast 147 169 8,200 -540 Descending Jacksonville Center
01:53PM 29.1397 -82.2672 124° Southeast 149 171 7,700 -600 Descending Jacksonville Center
01:54PM 29.1144 -82.2247 124° Southeast 145 167 7,100 -540 Descending Jacksonville Center
01:56PM 29.0892 -82.1797 123° Southeast 143 165 6,500 -540 Descending Jacksonville Center
01:56PM 29.0703 -82.1442 121° Southeast 145 167 6,100 -480 Descending Jacksonville Center
01:58PM 29.0469 -82.1064 125° Southeast 148 170 5,600 -480 Descending Jacksonville Center
01:58PM 29.0258 -82.0708 124° Southeast 147 169 5,200 -300 Descending Jacksonville Center
01:59PM 29.0069 -82.0331 120° Southeast 141 162 5,100 -60 Descending Jacksonville Center
02:01PM 28.9927 -81.9808 127° Southeast  Level FlightAware Approximate
02:01PM 28.9667 -81.9667 127° Southeast 135 155 5,100  Level Orlando TRACON
02:03PM 28.9333 -81.9167 127° Southeast 136 157 5,100  Level Orlando TRACON
02:04PM 28.9167 -81.8833 120° Southeast 130 150 5,100  Level Orlando TRACON
02:05PM 28.9000 -81.8500 120° Southeast 123 142 5,100  Level Orlando TRACON
02:06PM 28.8833 -81.8167 120° Southeast 127 146 5,100  Level Orlando TRACON
02:07PM 28.8667 -81.7833 120° Southeast 128 147 5,100 -240 Level Orlando TRACON
02:08PM 28.8500 -81.7333 111° Southeast 129 148 4,600 -480 Descending Orlando TRACON
02:09PM 28.8500 -81.7000 90° East 130 150 4,200 -300 Descending Orlando TRACON
02:10PM 28.8500 -81.6667 90° East 123 142 4,100  Descending Orlando TRACON
02:11PM 28.8333 -81.6167 111° Southeast 126 145 4,200 -60 Climbing Orlando TRACON
02:11PM 28.8333 -81.5833 90° East 128 147 4,000 -480 Descending Orlando TRACON
02:12PM 28.8167 -81.5500 120° Southeast 135 155 3,400 -720 Descending Orlando TRACON
02:14PM 28.8000 -81.5167 120° Southeast 88 101 2,600 -600 Descending Orlando TRACON
02:15PM 28.8000 -81.5000 90° East 80 92 2,200 -300 Descending Orlando TRACON
02:16PM 28.7833 -81.4667 120° Southeast 88 101 2,100  Descending Orlando TRACON
02:17PM 28.7833 -81.4333 90° East 111 128 2,200  Climbing Orlando TRACON
02:18PM 28.7833 -81.4000 90° East 117 135 2,200  Level Orlando TRACON
02:19PM 28.7833 -81.3667 90° East 96 110 2,200 -300 Level Orlando TRACON
02:20PM 28.7833 -81.3333 90° East 102 117 1,600 -480 Descending Orlando TRACON
02:21PM 28.7833 -81.3167 90° East 82 94 1,300 -420 Descending Orlando TRACON
02:22PM 28.7833 -81.2833 90° East 86 99 800 -540 Descending Orlando TRACON
02:24PM 28.7667 -81.2333 103° East  Level FlightAware Approximate
02:31PM 28.7767 -81.2355 103° East  Level Estimated
02:32PM 28.7767 -81.2355 103° East  Level Estimated